Forside
METAR-TAF:

METAR-TAF

Lufthavne :

Fond Du Lac County Airport

Fond du Lac, Wisconsin, USA

Breddekreds: 43-46-12N, længdekreds: 088-29-11W, højde: 246 m

Aktuelle vejr

Denne rapport blev lavet for 20 minutter siden, kl. 11:53 UTC
Vind 7 kt fra sydøst
Temperatur 3°C
Fugtighed 75%
Tryk 1023 hPa
Sigt: 16.1 km
Overskyet i en højde af 2600 ft

METAR: KFLD 241153Z AUTO 14007KT 10SM OVC026 03/M01 A3022 RMK AO2 SLP242 T00281011 10028 21028 56011

Tid: 06:13 (12:13 UTC)


TAF: fraværende

Vejrobservationer og prognoser fra mere end 4000 lufthavne (METAR og TAF).

De gule og røde prikker repræsenterer de meteorologiske stationer.

Flyt musen over at se navnet på stationen.

Så klik over at se vejr observationer og prognoser.

At skifte det kort: Klik på de grønne knapper med et sort kors for at zoome ind; på den grønne knap med en bindestreg for at zoome ud; eller på de grønne pile for tilstødende kort.


METAR-TAF: